Elnora, IN (47529)

12:30 PM EDT en Octubre 02, 2014 (GMT -0400)
KINSANDB2 | Change Station
CLOSE
Current Station
Estación meteorológica personal
Location: Sandborn, IN
Altura: 479 ft
Estaciones meteorológicas cercanas

Alt 479 ft 38.90 °N, 87.18 °W | Updated 7 minutes ago

Parcialmente nublado
Parcialmente nublado
76.8 ° F
Sensación térmica 79 ° F
N
5.0
Viento Variable Viento desde Sur
Gusts 6.0 mph

Hoy
Alta -- | Baja -- ° F
--% Posibilidad de precipitaciones
Ayer
Alta -- | Baja -- ° F
Precip. -- pul
7:45 AM 7:29 PM
Cuarto creciente, 60% visible
Presión 29.94 pul
Visibilidad 10.0 Millas
Nubes Nubes dispersas 6500 ft
Índice de calor 79 ° F
Punto de rocío 65 ° F
Humedad 68%
Precipitaciones 0.00 pul
Espesor de la nieve No disponible.
UV 5 de una escala de 12
Polen 5.20 de una escala de 12
Calidad del aire No disponible.
Flu Activity No disponible.
METAR KDCY 021615Z AUTO 21008KT 170V230 10SM SCT065 27/18 A2994 RMK AO2 LTG DSNT NW T02690176

More Conditions Fewer Conditions

Presión 29.94 pul
Visibilidad 10.0 Millas
Nubes Nubes dispersas 6500 ft
Índice de calor 79 ° F
Punto de rocío 65 ° F
Humedad 68%
Precipitaciones 0.00 pul
Espesor de la nieve No disponible.
UV 5 de una escala de 12
Polen 5.20 de una escala de 12
Calidad del aire No disponible.
Flu Activity No disponible.
METAR KDCY 021615Z AUTO 21008KT 170V230 10SM SCT065 27/18 A2994 RMK AO2 LTG DSNT NW T02690176

More Conditions Fewer Conditions

10-Day Weather Forecast

Almanac

Astronomía

Oct. 02, 2014 Salida Puesta
Hora real 7:45 AM EDT 7:29 PM EDT
Crepúsculo civil 7:18 AM EDT 7:55 PM EDT
Crepúsculo náutico 6:47 AM EDT 8:26 PM EDT
Crepúsculo astronómico 6:16 AM EDT 8:57 PM EDT
Luna 3:32 PM EDT 1:04 AM EDT
Horas de luz 12h 37m
Horas de luz
11h 44m
Tomorrow will be 2m 31s shorter.
Cuarto creciente, 60% of the Moon is Illuminated
Hoy
Cuarto creciente
Oct 8
Luna llena
Oct 15
Cuarto menguante
Oct 23
Nueva
Oct 30
Cuarto creciente

Extremos de hoy

Máximos del estado Bajos del estado

Community

WunderPhotos

Upload Photos

1,758,294 ¡fotos cargadas!

WunderBlogs® & News

Nearby

Grosos de nieve

Estación Profundido Altura
No tenemos constancia de nieve nueva.

Actividad de terremotos

Ciudad Distance Mag. Tiempo y dato
No hay informes recientes de la actividad sísmica.
Magnitud mínima muestra es 2,5.

Temperaturas de aguas costeras

Lugar Temperatura
Sin partes meteorológicos de las estaciones

Estaciones meteorológicas cercanas